createdAt,value
2022-12-22T00:05:38.103Z,18.61
2022-12-22T00:08:52.922Z,18.74
2022-12-22T00:11:44.608Z,18.73
2022-12-22T00:20:50.413Z,18.69
2022-12-22T00:24:02.797Z,18.69
2022-12-22T00:26:52.250Z,18.73
2022-12-22T00:29:44.697Z,18.77
2022-12-22T00:39:01.984Z,18.74
2022-12-22T00:41:57.121Z,18.51
2022-12-22T00:45:03.489Z,18.50
2022-12-22T00:48:11.037Z,18.33
2022-12-22T00:51:00.821Z,18.42
2022-12-22T00:53:58.382Z,18.43
2022-12-22T00:56:51.033Z,18.40
2022-12-22T01:00:18.529Z,18.47
2022-12-22T01:03:28.644Z,18.47
2022-12-22T01:06:29.624Z,18.48
2022-12-22T01:12:56.789Z,18.34
2022-12-22T01:16:10.403Z,18.37
2022-12-22T01:19:26.511Z,18.44
2022-12-22T01:26:10.704Z,18.42
2022-12-22T01:29:09.493Z,18.47
2022-12-22T01:31:58.183Z,18.53
2022-12-22T01:37:59.663Z,18.22
2022-12-22T01:40:52.409Z,18.35
2022-12-22T01:43:52.520Z,18.36
2022-12-22T01:46:47.630Z,18.09
2022-12-22T01:52:48.060Z,17.82
2022-12-22T01:55:45.415Z,18.11
2022-12-22T01:59:03.215Z,18.21
2022-12-22T02:02:04.293Z,18.25
2022-12-22T02:05:12.264Z,18.35
2022-12-22T02:08:21.655Z,18.29
2022-12-22T02:11:30.573Z,18.32
2022-12-22T02:14:44.158Z,18.43
2022-12-22T02:17:56.682Z,18.49
2022-12-22T02:24:10.071Z,18.46
2022-12-22T02:27:12.101Z,18.49
2022-12-22T02:30:08.848Z,18.39
2022-12-22T02:40:03.124Z,18.36
2022-12-22T02:43:06.625Z,18.46
2022-12-22T02:46:06.757Z,18.08
2022-12-22T02:49:03.336Z,18.24
2022-12-22T02:51:54.264Z,18.32
2022-12-22T02:54:47.598Z,18.39
2022-12-22T02:58:25.651Z,18.20
2022-12-22T03:01:12.249Z,18.43
2022-12-22T03:03:58.888Z,18.22
2022-12-22T03:06:52.884Z,18.34
2022-12-22T03:09:40.147Z,18.06
2022-12-22T03:12:30.470Z,18.18
2022-12-22T03:15:23.958Z,18.34
2022-12-22T03:18:26.904Z,18.31
2022-12-22T03:21:19.365Z,18.31
2022-12-22T03:24:13.710Z,18.42
2022-12-22T03:26:48.054Z,18.43
2022-12-22T03:29:38.010Z,18.45
2022-12-22T03:34:59.784Z,18.36
2022-12-22T03:37:46.837Z,18.34
2022-12-22T03:40:29.788Z,18.42
2022-12-22T03:43:25.586Z,18.32
2022-12-22T03:49:36.859Z,18.35
2022-12-22T03:52:16.343Z,18.36
2022-12-22T03:54:58.801Z,18.28
2022-12-22T03:57:33.167Z,18.09
2022-12-22T04:00:14.151Z,17.88
2022-12-22T04:02:48.255Z,18.06
2022-12-22T04:05:24.579Z,18.05
2022-12-22T04:07:55.738Z,18.04
2022-12-22T04:10:52.027Z,17.96
2022-12-22T04:13:24.614Z,18.13
2022-12-22T04:15:53.111Z,17.97
2022-12-22T04:18:32.283Z,18.14
2022-12-22T04:21:05.762Z,18.08
2022-12-22T04:23:53.196Z,18.21
2022-12-22T04:26:30.474Z,18.20
2022-12-22T04:29:24.674Z,18.28
2022-12-22T04:32:25.125Z,18.25
2022-12-22T04:35:10.552Z,18.09
2022-12-22T04:37:42.012Z,18.25
2022-12-22T04:40:13.784Z,18.23
2022-12-22T04:42:57.117Z,18.32
2022-12-22T04:45:50.948Z,18.37
2022-12-22T04:48:38.553Z,18.26
2022-12-22T04:51:08.821Z,18.21
2022-12-22T04:53:47.911Z,18.21
2022-12-22T04:56:41.705Z,18.13
2022-12-22T04:59:20.026Z,18.07
2022-12-22T05:01:50.175Z,18.06
2022-12-22T05:04:26.035Z,18.06
2022-12-22T05:07:17.172Z,18.01
2022-12-22T05:09:58.380Z,18.04
2022-12-22T05:12:48.662Z,17.94
2022-12-22T05:15:23.522Z,17.95
2022-12-22T05:20:43.720Z,17.83
2022-12-22T05:23:17.575Z,17.86
2022-12-22T05:25:58.526Z,17.78
2022-12-22T05:28:33.851Z,17.70
2022-12-22T05:34:36.906Z,17.65
2022-12-22T05:37:11.191Z,17.58
2022-12-22T05:39:40.782Z,17.50
2022-12-22T05:48:45.921Z,17.53
2022-12-22T05:51:34.625Z,17.52
2022-12-22T05:54:09.559Z,17.38
2022-12-22T05:56:41.584Z,17.43
2022-12-22T06:02:47.767Z,17.35
2022-12-22T06:05:18.948Z,17.39
2022-12-22T06:08:14.925Z,17.36
2022-12-22T06:10:48.035Z,17.25
2022-12-22T06:13:21.197Z,17.26
2022-12-22T06:21:28.502Z,17.13
2022-12-22T06:24:00.320Z,17.18
2022-12-22T06:29:59.403Z,17.07
2022-12-22T06:32:29.877Z,17.13
2022-12-22T06:35:01.115Z,17.13
2022-12-22T06:40:44.665Z,17.13
2022-12-22T06:43:13.906Z,17.01
2022-12-22T06:45:47.788Z,16.97
2022-12-22T06:48:35.813Z,16.98
2022-12-22T06:51:05.323Z,16.81
2022-12-22T06:54:03.301Z,16.99
2022-12-22T06:56:44.004Z,16.91
2022-12-22T06:59:17.014Z,17.04
2022-12-22T07:07:46.794Z,17.02
2022-12-22T07:10:18.107Z,17.03
2022-12-22T07:12:48.598Z,17.09
2022-12-22T07:18:18.453Z,17.00
2022-12-22T07:20:52.796Z,16.95
2022-12-22T07:23:24.656Z,16.82
2022-12-22T07:26:05.031Z,17.10
2022-12-22T07:28:48.675Z,17.22
2022-12-22T07:37:57.265Z,17.39
2022-12-22T07:44:12.050Z,17.08
2022-12-22T07:47:06.486Z,17.36
2022-12-22T07:50:26.343Z,17.45
2022-12-22T07:53:13.742Z,17.47
2022-12-22T07:56:27.559Z,17.52
2022-12-22T07:59:22.963Z,17.56
2022-12-22T08:02:22.500Z,17.55
2022-12-22T08:05:35.129Z,17.16
2022-12-22T08:14:31.938Z,17.64
2022-12-22T08:19:56.155Z,17.77
2022-12-22T08:22:39.113Z,17.86
2022-12-22T08:32:10.081Z,17.93
2022-12-22T08:34:46.086Z,17.96
2022-12-22T08:40:53.421Z,18.04
2022-12-22T08:46:33.695Z,18.16
2022-12-22T08:49:18.067Z,18.33
2022-12-22T08:52:02.511Z,18.31
2022-12-22T08:54:55.393Z,18.25
2022-12-22T09:03:48.712Z,18.70
2022-12-22T09:06:36.296Z,18.64
2022-12-22T09:09:31.306Z,18.71
2022-12-22T09:12:01.636Z,18.70
2022-12-22T09:14:38.120Z,18.74
2022-12-22T09:18:13.492Z,18.61
2022-12-22T09:23:49.761Z,18.69
2022-12-22T09:26:39.057Z,18.96
2022-12-22T09:29:52.994Z,19.17
2022-12-22T09:36:20.694Z,19.13
2022-12-22T09:38:56.510Z,19.22
2022-12-22T09:48:03.229Z,19.60
2022-12-22T09:54:08.089Z,19.87
2022-12-22T09:57:18.457Z,19.95
2022-12-22T10:00:27.676Z,20.05
2022-12-22T10:03:05.321Z,19.64
2022-12-22T10:05:39.243Z,19.71
2022-12-22T10:11:29.214Z,19.80
2022-12-22T10:14:00.252Z,19.66
2022-12-22T10:20:35.873Z,20.06
2022-12-22T10:23:29.382Z,20.49
2022-12-22T10:27:12.522Z,21.33
2022-12-22T10:42:17.364Z,24.28
2022-12-22T10:57:27.064Z,26.61
2022-12-22T11:01:08.368Z,27.47
2022-12-22T11:11:44.653Z,28.67
2022-12-22T11:54:10.573Z,32.03
2022-12-22T12:39:36.870Z,33.77
2022-12-22T12:42:05.274Z,33.70
2022-12-22T12:44:38.082Z,34.07
2022-12-22T12:47:09.313Z,34.49
2022-12-22T12:49:38.134Z,33.92
2022-12-22T12:52:10.741Z,34.33
2022-12-22T12:54:40.262Z,34.66
2022-12-22T12:57:08.277Z,34.54
2022-12-22T12:59:41.867Z,34.22
2022-12-22T13:02:30.425Z,34.52
2022-12-22T13:05:35.835Z,34.31
2022-12-22T13:08:33.157Z,34.52
2022-12-22T13:12:11.340Z,34.42
2022-12-22T13:15:07.705Z,34.06
2022-12-22T13:18:15.115Z,34.56
2022-12-22T13:21:12.237Z,33.20
2022-12-22T13:24:30.021Z,33.81
2022-12-22T13:27:36.935Z,33.26
2022-12-22T13:30:22.831Z,32.84
2022-12-22T13:33:02.768Z,32.30
2022-12-22T13:35:36.525Z,31.79
2022-12-22T13:38:33.320Z,31.90
2022-12-22T13:41:10.463Z,32.04
2022-12-22T13:43:42.730Z,31.97
2022-12-22T13:46:12.072Z,32.09
2022-12-22T13:52:05.226Z,30.74
2022-12-22T13:54:43.045Z,30.63
2022-12-22T14:00:17.857Z,31.31
2022-12-22T14:03:21.641Z,31.33
2022-12-22T14:09:01.332Z,30.81
2022-12-22T14:11:31.830Z,30.57
2022-12-22T14:14:21.484Z,30.45
2022-12-22T14:17:08.203Z,28.50
2022-12-22T14:19:47.975Z,29.43
2022-12-22T14:22:22.917Z,29.25
2022-12-22T14:25:10.082Z,29.58
2022-12-22T14:27:46.109Z,29.28
2022-12-22T14:30:38.779Z,28.43
2022-12-22T14:33:36.103Z,27.43
2022-12-22T14:39:38.311Z,27.78
2022-12-22T14:42:18.879Z,27.71
2022-12-22T14:44:50.165Z,27.89
2022-12-22T14:47:30.460Z,27.32
2022-12-22T14:50:04.712Z,27.46
2022-12-22T14:53:00.973Z,27.36
2022-12-22T14:55:47.460Z,27.23
2022-12-22T14:58:27.976Z,26.72
2022-12-22T15:01:23.964Z,27.13
2022-12-22T15:04:06.710Z,26.93
2022-12-22T15:06:52.339Z,27.03
2022-12-22T15:10:13.799Z,26.28
2022-12-22T15:12:45.344Z,26.57
2022-12-22T15:18:24.872Z,24.77
2022-12-22T15:21:13.461Z,25.39
2022-12-22T15:24:09.818Z,25.00
2022-12-22T15:29:52.829Z,25.21
2022-12-22T15:32:37.867Z,24.24
2022-12-22T15:38:38.753Z,23.76
2022-12-22T15:41:29.260Z,24.43
2022-12-22T15:44:38.508Z,24.34
2022-12-22T15:47:39.367Z,24.10
2022-12-22T15:50:45.262Z,23.72
2022-12-22T15:53:28.055Z,24.12
2022-12-22T15:55:58.838Z,23.99
2022-12-22T16:07:50.814Z,23.52
2022-12-22T16:10:26.417Z,23.40
2022-12-22T16:13:04.050Z,22.80
2022-12-22T16:15:55.519Z,23.24
2022-12-22T16:21:38.755Z,23.11
2022-12-22T16:24:39.706Z,22.88
2022-12-22T16:27:26.949Z,22.70
2022-12-22T16:30:26.761Z,22.97
2022-12-22T16:33:01.978Z,22.91
2022-12-22T16:35:35.914Z,22.91
2022-12-22T16:38:06.566Z,22.73
2022-12-22T16:43:52.594Z,22.71
2022-12-22T16:46:36.408Z,22.66
2022-12-22T16:49:21.482Z,22.65
2022-12-22T16:51:58.893Z,22.73
2022-12-22T16:54:33.523Z,22.64
2022-12-22T16:57:00.787Z,22.64
2022-12-22T16:59:27.873Z,22.53
2022-12-22T17:01:59.701Z,22.31
2022-12-22T17:04:37.538Z,22.59
2022-12-22T17:13:45.508Z,22.23
2022-12-22T17:16:25.699Z,22.28
2022-12-22T17:18:53.302Z,22.46
2022-12-22T17:21:23.495Z,22.20
2022-12-22T17:23:52.466Z,22.37
2022-12-22T17:26:25.913Z,22.41
2022-12-22T17:28:56.280Z,22.42
2022-12-22T17:31:25.058Z,21.92
2022-12-22T17:33:53.885Z,22.26
2022-12-22T17:36:26.630Z,22.28
2022-12-22T17:38:56.677Z,22.22
2022-12-22T17:41:23.744Z,22.02
2022-12-22T17:43:50.928Z,22.23
2022-12-22T17:46:19.049Z,22.19
2022-12-22T17:48:48.387Z,22.15
2022-12-22T17:51:17.592Z,21.80
2022-12-22T17:53:59.262Z,21.93
2022-12-22T17:56:32.999Z,22.03
2022-12-22T17:59:00.255Z,22.03
2022-12-22T18:01:28.684Z,22.05
2022-12-22T18:03:57.730Z,22.10
2022-12-22T18:06:28.067Z,21.92
2022-12-22T18:08:58.387Z,22.03
2022-12-22T18:11:28.569Z,21.99
2022-12-22T18:14:02.261Z,21.73
2022-12-22T18:16:31.842Z,21.81
2022-12-22T18:19:01.836Z,22.00
2022-12-22T18:21:29.098Z,22.11
2022-12-22T18:23:59.062Z,21.89
2022-12-22T18:26:30.221Z,21.91
2022-12-22T18:29:00.609Z,22.04
2022-12-22T18:31:30.050Z,21.94
2022-12-22T18:33:59.986Z,21.88
2022-12-22T18:36:32.350Z,21.80
2022-12-22T18:39:01.471Z,21.46
2022-12-22T18:41:37.544Z,21.73
2022-12-22T18:44:04.586Z,21.65
2022-12-22T18:46:36.873Z,21.71
2022-12-22T18:49:07.413Z,21.68
2022-12-22T18:51:34.723Z,21.70
2022-12-22T18:54:03.955Z,21.81
2022-12-22T18:56:34.883Z,21.67
2022-12-22T18:59:12.015Z,21.31
2022-12-22T19:01:49.390Z,21.61
2022-12-22T19:04:16.938Z,21.04
2022-12-22T19:07:01.871Z,21.34
2022-12-22T19:09:29.961Z,21.22
2022-12-22T19:11:57.000Z,21.48
2022-12-22T19:14:24.964Z,21.08
2022-12-22T19:16:52.154Z,21.52
2022-12-22T19:19:19.736Z,21.45
2022-12-22T19:21:50.601Z,21.42
2022-12-22T19:24:22.740Z,21.23
2022-12-22T19:26:49.836Z,21.32
2022-12-22T19:29:20.852Z,21.48
2022-12-22T19:31:48.818Z,21.39
2022-12-22T19:34:21.712Z,21.42
2022-12-22T19:36:54.153Z,21.50
2022-12-22T19:39:24.547Z,21.51
2022-12-22T19:41:54.064Z,21.40
2022-12-22T19:44:22.810Z,21.43
2022-12-22T19:46:51.893Z,21.24
2022-12-22T19:49:21.538Z,21.34
2022-12-22T19:51:49.677Z,21.25
2022-12-22T19:54:19.973Z,21.30
2022-12-22T19:56:48.932Z,21.33
2022-12-22T19:59:28.270Z,21.29
2022-12-22T20:02:01.481Z,21.21
2022-12-22T20:04:29.092Z,21.21
2022-12-22T20:06:57.329Z,21.12
2022-12-22T20:09:28.299Z,21.14
2022-12-22T20:11:58.262Z,21.16
2022-12-22T20:14:26.934Z,21.15
2022-12-22T20:16:55.446Z,21.15
2022-12-22T20:19:32.012Z,21.16
2022-12-22T20:22:01.081Z,21.16
2022-12-22T20:24:37.284Z,21.16
2022-12-22T20:27:06.264Z,21.11
2022-12-22T20:29:33.297Z,21.00
2022-12-22T20:32:00.387Z,20.95
2022-12-22T20:34:29.120Z,20.99
2022-12-22T20:37:05.587Z,20.92
2022-12-22T20:39:32.861Z,20.84
2022-12-22T20:42:02.748Z,20.85
2022-12-22T20:44:29.845Z,20.80
2022-12-22T20:47:01.675Z,20.78
2022-12-22T20:49:29.589Z,20.80
2022-12-22T20:51:59.859Z,20.81
2022-12-22T20:54:30.574Z,20.77
2022-12-22T20:57:03.211Z,20.70
2022-12-22T20:59:32.036Z,20.75
2022-12-22T21:01:59.455Z,20.40
2022-12-22T21:04:27.670Z,20.34
2022-12-22T21:06:57.192Z,20.38
2022-12-22T21:09:30.797Z,20.39
2022-12-22T21:11:59.659Z,20.31
2022-12-22T21:14:28.341Z,20.36
2022-12-22T21:16:58.285Z,20.31
2022-12-22T21:19:30.375Z,20.35
2022-12-22T21:22:01.989Z,20.21
2022-12-22T21:24:29.323Z,20.24
2022-12-22T21:26:58.258Z,20.25
2022-12-22T21:29:29.517Z,20.19
2022-12-22T21:31:57.610Z,20.03
2022-12-22T21:34:26.321Z,20.06
2022-12-22T21:37:03.666Z,20.09
2022-12-22T21:39:34.429Z,20.00
2022-12-22T21:44:52.677Z,19.85
2022-12-22T21:47:32.500Z,19.91
2022-12-22T21:50:00.658Z,19.92
2022-12-22T21:52:27.833Z,19.95
2022-12-22T21:54:55.930Z,19.92
2022-12-22T21:57:26.284Z,19.96
2022-12-22T21:59:56.351Z,19.88
2022-12-22T22:02:23.834Z,19.79
2022-12-22T22:04:59.657Z,19.79
2022-12-22T22:07:27.656Z,19.83
2022-12-22T22:09:59.496Z,19.86
2022-12-22T22:12:37.580Z,19.84
2022-12-22T22:15:05.446Z,19.84
2022-12-22T22:17:38.459Z,19.83
2022-12-22T22:20:09.374Z,19.80
2022-12-22T22:22:37.295Z,19.81
2022-12-22T22:25:06.201Z,19.87
2022-12-22T22:27:34.908Z,19.84
2022-12-22T22:30:05.339Z,19.91
2022-12-22T22:32:33.421Z,19.88
2022-12-22T22:35:06.527Z,19.83
2022-12-22T22:37:35.498Z,19.54
2022-12-22T22:40:05.611Z,19.67
2022-12-22T22:42:40.247Z,19.67
2022-12-22T22:45:08.368Z,19.54
2022-12-22T22:47:38.532Z,19.71
2022-12-22T22:50:07.021Z,19.51
2022-12-22T22:52:34.442Z,19.52
2022-12-22T22:55:11.321Z,19.52
2022-12-22T22:57:40.176Z,19.62
2022-12-22T23:00:12.352Z,19.71
2022-12-22T23:02:43.175Z,19.61
2022-12-22T23:05:22.510Z,19.67
2022-12-22T23:07:53.404Z,19.43
2022-12-22T23:10:21.856Z,19.44
2022-12-22T23:12:48.856Z,19.51
2022-12-22T23:15:16.872Z,19.56
2022-12-22T23:17:48.093Z,19.62
2022-12-22T23:20:17.714Z,19.64
2022-12-22T23:22:44.763Z,19.62
2022-12-22T23:25:17.379Z,19.67
2022-12-22T23:27:44.518Z,19.67
2022-12-22T23:30:12.783Z,19.72
2022-12-22T23:32:42.560Z,19.64
2022-12-22T23:35:10.271Z,19.66
2022-12-22T23:37:40.344Z,19.60
2022-12-22T23:42:56.972Z,19.49
2022-12-22T23:45:32.973Z,19.48
2022-12-22T23:48:03.783Z,19.44
2022-12-22T23:50:33.634Z,19.45
2022-12-22T23:53:04.210Z,19.39
2022-12-22T23:55:31.376Z,19.38
2022-12-22T23:58:04.988Z,19.35
